createdAt,value
2019-03-04T00:00:00.379Z,99262.21
2019-03-04T00:02:08.238Z,99259.11
2019-03-04T00:04:15.842Z,99256.48
2019-03-04T00:06:23.509Z,99258.27
2019-03-04T00:08:32.904Z,99253.02
2019-03-04T00:10:40.937Z,99245.41
2019-03-04T00:12:48.721Z,99251.34
2019-03-04T00:14:56.590Z,99240.72
2019-03-04T00:17:04.310Z,99240.36
2019-03-04T00:19:12.118Z,99238.85
2019-03-04T00:21:19.674Z,99237.93
2019-03-04T00:23:27.362Z,99241.31
2019-03-04T00:25:35.153Z,99230.24
2019-03-04T00:27:42.815Z,99231.73
2019-03-04T00:29:50.368Z,99237.54
2019-03-04T00:31:58.001Z,99227.03
2019-03-04T00:34:05.595Z,99231.25
2019-03-04T00:36:13.425Z,99236.22
2019-03-04T00:38:21.131Z,99221.03
2019-03-04T00:40:29.392Z,99219.62
2019-03-04T00:42:37.027Z,99221.70
2019-03-04T00:44:44.693Z,99223.76
2019-03-04T00:46:52.574Z,99218.59
2019-03-04T00:49:00.123Z,99208.75
2019-03-04T00:51:07.635Z,99205.85
2019-03-04T00:53:15.396Z,99213.81
2019-03-04T00:55:23.200Z,99206.41
2019-03-04T00:57:30.725Z,99208.48
2019-03-04T00:59:38.224Z,99206.22
2019-03-04T01:01:45.940Z,99201.91
2019-03-04T01:03:53.673Z,99215.41
2019-03-04T01:06:03.392Z,99207.25
2019-03-04T01:08:11.012Z,99211.67
2019-03-04T01:10:19.169Z,99204.35
2019-03-04T01:12:26.742Z,99203.03
2019-03-04T01:14:34.494Z,99207.90
2019-03-04T01:16:42.031Z,99204.52
2019-03-04T01:18:49.685Z,99204.91
2019-03-04T01:20:57.376Z,99200.70
2019-03-04T01:23:05.249Z,99191.39
2019-03-04T01:25:15.652Z,99184.83
2019-03-04T01:27:24.197Z,99194.30
2019-03-04T01:29:31.794Z,99185.10
2019-03-04T01:31:39.437Z,99184.66
2019-03-04T01:33:47.295Z,99180.45
2019-03-04T01:35:54.949Z,99178.66
2019-03-04T01:38:02.658Z,99175.91
2019-03-04T01:40:13.815Z,99172.64
2019-03-04T01:42:21.457Z,99174.80
2019-03-04T01:44:29.199Z,99171.14
2019-03-04T01:46:36.794Z,99172.28
2019-03-04T01:48:44.578Z,99173.77
2019-03-04T01:50:52.325Z,99170.09
2019-03-04T01:52:59.836Z,99167.59
2019-03-04T01:55:08.314Z,99163.37
2019-03-04T01:57:16.077Z,99162.63
2019-03-04T01:59:23.840Z,99164.59
2019-03-04T02:01:31.674Z,99158.56
2019-03-04T02:03:39.356Z,99157.19
2019-03-04T02:05:47.116Z,99153.52
2019-03-04T02:07:54.801Z,99145.25
2019-03-04T02:10:02.546Z,99152.38
2019-03-04T02:12:10.331Z,99142.83
2019-03-04T02:14:17.833Z,99151.66
2019-03-04T02:16:25.544Z,99140.97
2019-03-04T02:18:33.274Z,99137.58
2019-03-04T02:20:40.795Z,99138.06
2019-03-04T02:22:48.754Z,99135.31
2019-03-04T02:24:56.408Z,99131.22
2019-03-04T02:27:04.171Z,99131.78
2019-03-04T02:29:11.890Z,99126.89
2019-03-04T02:31:19.614Z,99129.34
2019-03-04T02:33:27.167Z,99117.70
2019-03-04T02:35:34.991Z,99114.33
2019-03-04T02:37:42.728Z,99115.83
2019-03-04T02:39:50.361Z,99108.42
2019-03-04T02:41:58.004Z,99105.33
2019-03-04T02:44:05.848Z,99110.02
2019-03-04T02:46:13.605Z,99102.13
2019-03-04T02:48:21.276Z,99103.17
2019-03-04T02:50:28.852Z,99102.67
2019-03-04T02:52:36.287Z,99106.80
2019-03-04T02:54:43.993Z,99098.56
2019-03-04T02:56:51.641Z,99104.67
2019-03-04T02:58:59.234Z,99100.05
2019-03-04T03:01:07.204Z,99098.92
2019-03-04T03:03:14.975Z,99101.94
2019-03-04T03:05:22.800Z,99092.18
2019-03-04T03:07:30.640Z,99103.25
2019-03-04T03:09:38.317Z,99096.41
2019-03-04T03:11:45.853Z,99105.88
2019-03-04T03:13:53.658Z,99095.19
2019-03-04T03:16:01.174Z,99100.14
2019-03-04T03:18:09.159Z,99091.79
2019-03-04T03:20:16.828Z,99084.95
2019-03-04T03:22:24.574Z,99080.45
2019-03-04T03:24:32.445Z,99082.41
2019-03-04T03:26:40.272Z,99083.16
2019-03-04T03:28:48.126Z,99078.03
2019-03-04T03:30:55.854Z,99080.27
2019-03-04T03:33:03.531Z,99076.81
2019-03-04T03:35:11.843Z,99074.66
2019-03-04T03:37:19.540Z,99072.30
2019-03-04T03:39:27.126Z,99074.75
2019-03-04T03:41:34.909Z,99074.93
2019-03-04T03:43:42.616Z,99063.47
2019-03-04T03:45:50.797Z,99065.92
2019-03-04T03:47:58.668Z,99063.95
2019-03-04T03:50:08.883Z,99062.99
2019-03-04T03:52:16.547Z,99058.61
2019-03-04T03:54:24.216Z,99061.32
2019-03-04T03:56:32.166Z,99055.98
2019-03-04T03:58:40.060Z,99054.48
2019-03-04T04:00:47.664Z,99055.41
2019-03-04T04:02:55.453Z,99059.56
2019-03-04T04:05:03.388Z,99062.84
2019-03-04T04:07:11.164Z,99054.40
2019-03-04T04:09:19.020Z,99050.46
2019-03-04T04:11:26.791Z,99046.43
2019-03-04T04:13:34.147Z,99051.38
2019-03-04T04:15:41.936Z,99054.28
2019-03-04T04:17:49.883Z,99048.10
2019-03-04T04:19:57.380Z,99051.08
2019-03-04T04:22:04.990Z,99050.46
2019-03-04T04:24:12.730Z,99053.44
2019-03-04T04:26:23.586Z,99050.61
2019-03-04T04:28:32.046Z,99054.19
2019-03-04T04:30:40.707Z,99059.98
2019-03-04T04:32:48.229Z,99052.58
2019-03-04T04:34:55.899Z,99052.97
2019-03-04T04:37:03.392Z,99049.95
2019-03-04T04:39:11.176Z,99049.95
2019-03-04T04:41:18.846Z,99046.66
2019-03-04T04:43:26.542Z,99054.24
2019-03-04T04:45:34.687Z,99053.50
2019-03-04T04:47:42.407Z,99047.59
2019-03-04T04:49:50.051Z,99045.05
2019-03-04T04:51:57.767Z,99039.31
2019-03-04T04:54:05.594Z,99043.34
2019-03-04T04:56:13.530Z,99049.17
2019-03-04T04:58:21.199Z,99039.63
2019-03-04T05:00:31.179Z,99044.48
2019-03-04T05:02:38.670Z,99040.16
2019-03-04T05:04:46.310Z,99038.48
2019-03-04T05:06:54.115Z,99040.28
2019-03-04T05:09:01.778Z,99038.00
2019-03-04T05:11:09.344Z,99034.06
2019-03-04T05:13:16.897Z,99032.48
2019-03-04T05:15:24.536Z,99034.37
2019-03-04T05:17:32.139Z,99020.85
2019-03-04T05:19:39.906Z,99021.45
2019-03-04T05:21:47.601Z,99019.53
2019-03-04T05:23:55.242Z,99011.09
2019-03-04T05:26:03.058Z,99012.61
2019-03-04T05:28:10.725Z,99010.34
2019-03-04T05:30:19.945Z,99004.52
2019-03-04T05:32:27.611Z,98988.98
2019-03-04T05:34:35.443Z,98970.59
2019-03-04T05:36:43.337Z,98971.55
2019-03-04T05:38:51.231Z,98980.36
2019-03-04T05:40:58.926Z,98999.84
2019-03-04T05:43:06.620Z,98987.58
2019-03-04T05:45:16.135Z,98985.61
2019-03-04T05:47:23.870Z,98991.12
2019-03-04T05:49:32.029Z,99005.95
2019-03-04T05:51:39.812Z,99003.33
2019-03-04T05:53:47.441Z,98997.51
2019-03-04T05:55:55.130Z,98993.00
2019-03-04T05:58:02.901Z,98991.20
2019-03-04T06:00:15.813Z,98994.09
2019-03-04T06:02:23.592Z,99001.89
2019-03-04T06:04:31.273Z,99000.75
2019-03-04T06:07:06.367Z,99004.69
2019-03-04T06:09:14.227Z,98998.69
2019-03-04T06:11:21.868Z,99004.47
2019-03-04T06:13:29.744Z,99002.94
2019-03-04T06:15:37.769Z,99004.99
2019-03-04T06:17:45.597Z,99003.50
2019-03-04T06:19:53.524Z,99008.63
2019-03-04T06:22:01.481Z,99006.87
2019-03-04T06:24:09.119Z,99006.87
2019-03-04T06:26:16.860Z,99013.22
2019-03-04T06:28:24.496Z,99018.48
2019-03-04T06:30:32.230Z,99019.95
2019-03-04T06:32:40.003Z,99019.74
2019-03-04T06:34:47.765Z,99021.44
2019-03-04T06:36:55.554Z,99015.70
2019-03-04T06:39:05.088Z,99016.92
2019-03-04T06:41:12.782Z,99018.19
2019-03-04T06:43:20.551Z,99011.14
2019-03-04T06:45:28.419Z,99001.11
2019-03-04T06:47:36.072Z,98993.13
2019-03-04T06:49:43.700Z,99005.05
2019-03-04T06:51:52.782Z,99011.22
2019-03-04T06:55:00.542Z,99009.52
2019-03-04T06:57:28.207Z,99007.80
2019-03-04T06:59:59.935Z,99007.41
2019-03-04T07:02:12.609Z,99007.63
2019-03-04T07:05:08.007Z,99009.11
2019-03-04T07:07:15.672Z,99003.63
2019-03-04T07:09:23.434Z,99001.09
2019-03-04T07:11:31.707Z,99002.96
2019-03-04T07:13:39.424Z,99002.48
2019-03-04T07:15:47.143Z,99006.20
2019-03-04T07:17:54.985Z,99001.81
2019-03-04T07:20:11.046Z,99007.68
2019-03-04T07:22:19.121Z,99002.32
2019-03-04T07:24:27.566Z,99006.75
2019-03-04T07:26:35.566Z,98986.06
2019-03-04T07:28:43.574Z,98996.39
2019-03-04T07:30:54.335Z,98996.16
2019-03-04T07:33:03.019Z,98981.28
2019-03-04T07:35:11.615Z,98983.10
2019-03-04T07:37:20.023Z,98977.65
2019-03-04T07:39:28.095Z,98977.65
2019-03-04T07:41:38.659Z,98973.73
2019-03-04T07:43:46.516Z,98964.52
2019-03-04T07:45:54.287Z,98954.98
2019-03-04T07:48:03.316Z,98953.34
2019-03-04T07:50:11.117Z,98948.13
2019-03-04T07:52:18.840Z,98947.27
2019-03-04T07:54:26.683Z,98944.63
2019-03-04T07:56:34.399Z,98939.42
2019-03-04T07:58:42.458Z,98951.42
2019-03-04T08:00:50.217Z,98945.91
2019-03-04T08:02:57.770Z,98945.33
2019-03-04T08:05:05.675Z,98942.16
2019-03-04T08:07:50.231Z,98943.13
2019-03-04T08:11:24.923Z,98940.69
2019-03-04T08:13:44.641Z,98931.40
2019-03-04T08:15:55.919Z,98937.34
2019-03-04T08:18:03.791Z,98935.67
2019-03-04T08:20:14.271Z,98923.17
2019-03-04T08:22:22.115Z,98922.94
2019-03-04T08:24:29.867Z,98923.91
2019-03-04T08:26:38.662Z,98918.50
2019-03-04T08:28:46.559Z,98916.95
2019-03-04T08:30:54.295Z,98909.16
2019-03-04T08:33:02.080Z,98905.55
2019-03-04T08:35:10.248Z,98903.14
2019-03-04T08:37:26.793Z,98904.21
2019-03-04T08:39:35.114Z,98907.91
2019-03-04T08:41:42.884Z,98907.78
2019-03-04T08:43:50.698Z,98909.21
2019-03-04T08:45:58.339Z,98897.79
2019-03-04T08:48:06.115Z,98890.42
2019-03-04T08:50:14.848Z,98893.67
2019-03-04T08:52:22.770Z,98889.92
2019-03-04T08:54:30.585Z,98898.34
2019-03-04T08:56:38.352Z,98898.75
2019-03-04T08:58:46.465Z,98891.75
2019-03-04T09:00:54.117Z,98888.63
2019-03-04T09:03:01.684Z,98878.71
2019-03-04T09:05:09.957Z,98874.31
2019-03-04T09:07:17.772Z,98865.70
2019-03-04T09:09:25.559Z,98857.70
2019-03-04T09:11:33.332Z,98857.64
2019-03-04T09:13:40.915Z,98861.77
2019-03-04T09:15:48.719Z,98852.25
2019-03-04T09:17:56.510Z,98851.64
2019-03-04T09:20:04.622Z,98837.33
2019-03-04T09:22:12.535Z,98836.27
2019-03-04T09:24:20.340Z,98831.34
2019-03-04T09:26:28.554Z,98827.38
2019-03-04T09:28:36.968Z,98826.23
2019-03-04T09:30:44.790Z,98826.55
2019-03-04T09:32:52.887Z,98820.80
2019-03-04T09:35:00.670Z,98819.34
2019-03-04T09:37:08.727Z,98819.47
2019-03-04T09:39:18.703Z,98819.84
2019-03-04T09:41:26.671Z,98812.73
2019-03-04T09:43:34.501Z,98810.45
2019-03-04T09:45:42.466Z,98800.80
2019-03-04T09:47:50.347Z,98794.37
2019-03-04T09:49:58.086Z,98790.64
2019-03-04T09:52:06.099Z,98797.39
2019-03-04T09:54:13.715Z,98794.74
2019-03-04T09:56:21.487Z,98782.32
2019-03-04T09:58:29.201Z,98776.71
2019-03-04T10:00:53.681Z,98773.80
2019-03-04T10:03:37.341Z,98766.28
2019-03-04T10:06:28.030Z,98754.74
2019-03-04T10:09:07.800Z,98740.02
2019-03-04T10:12:07.921Z,98733.10
2019-03-04T10:15:08.912Z,98724.60
2019-03-04T10:18:07.394Z,98720.27
2019-03-04T10:20:51.133Z,98724.75
2019-03-04T10:24:04.393Z,98718.38
2019-03-04T10:27:12.214Z,98719.50
2019-03-04T10:30:12.642Z,98715.48
2019-03-04T10:33:40.940Z,98708.28
2019-03-04T10:36:28.553Z,98707.98
2019-03-04T10:39:05.996Z,98691.49
2019-03-04T10:41:37.213Z,98693.42
2019-03-04T10:45:01.322Z,98691.48
2019-03-04T10:47:09.215Z,98685.08
2019-03-04T10:49:16.979Z,98688.92
2019-03-04T10:51:25.129Z,98691.38
2019-03-04T10:53:33.307Z,98684.19
2019-03-04T10:55:42.323Z,98678.62
2019-03-04T10:57:50.435Z,98678.12
2019-03-04T10:59:58.298Z,98673.82
2019-03-04T11:02:06.598Z,98666.31
2019-03-04T11:04:14.436Z,98661.88
2019-03-04T11:06:22.239Z,98656.46
2019-03-04T11:08:30.084Z,98646.72
2019-03-04T11:10:38.036Z,98636.02
2019-03-04T11:12:45.718Z,98633.46
2019-03-04T11:14:53.596Z,98621.22
2019-03-04T11:17:01.281Z,98616.09
2019-03-04T11:19:09.388Z,98595.17
2019-03-04T11:21:17.139Z,98593.80
2019-03-04T11:23:25.505Z,98589.28
2019-03-04T11:25:33.817Z,98597.18
2019-03-04T11:27:41.745Z,98597.10
2019-03-04T11:29:49.525Z,98597.10
2019-03-04T11:31:57.237Z,98603.89
2019-03-04T11:34:05.175Z,98596.22
2019-03-04T11:36:12.941Z,98600.48
2019-03-04T11:38:42.381Z,98609.70
2019-03-04T11:40:50.308Z,98610.62
2019-03-04T11:42:58.001Z,98615.80
2019-03-04T11:45:08.219Z,98617.72
2019-03-04T11:47:16.236Z,98614.61
2019-03-04T11:49:24.145Z,98618.85
2019-03-04T11:51:31.849Z,98618.80
2019-03-04T11:53:39.633Z,98606.50
2019-03-04T11:55:47.330Z,98612.17
2019-03-04T11:57:55.214Z,98605.36
2019-03-04T12:00:09.257Z,98609.05
2019-03-04T12:02:21.497Z,98596.22
2019-03-04T12:04:29.117Z,98589.59
2019-03-04T12:06:36.779Z,98590.13
2019-03-04T12:08:44.492Z,98587.03
2019-03-04T12:10:52.279Z,98585.92
2019-03-04T12:13:00.294Z,98583.81
2019-03-04T12:15:10.464Z,98579.20
2019-03-04T12:17:19.435Z,98577.82
2019-03-04T12:19:28.820Z,98573.12
2019-03-04T12:21:36.673Z,98570.30
2019-03-04T12:23:44.396Z,98561.06
2019-03-04T12:25:52.262Z,98550.95
2019-03-04T12:28:00.215Z,98533.88
2019-03-04T12:30:11.233Z,98532.30
2019-03-04T12:32:31.658Z,98513.02
2019-03-04T12:34:39.352Z,98518.34
2019-03-04T12:36:47.002Z,98520.09
2019-03-04T12:38:54.703Z,98507.78
2019-03-04T12:41:02.530Z,98511.17
2019-03-04T12:43:10.375Z,98509.70
2019-03-04T12:45:18.541Z,98505.07
2019-03-04T12:47:26.228Z,98490.15
2019-03-04T12:49:33.885Z,98481.12
2019-03-04T12:51:41.743Z,98470.89
2019-03-04T12:53:50.190Z,98475.48
2019-03-04T12:55:57.807Z,98475.84
2019-03-04T12:58:06.176Z,98477.09
2019-03-04T13:00:18.410Z,98484.75
2019-03-04T13:02:26.131Z,98483.56
2019-03-04T13:04:33.798Z,98481.38
2019-03-04T13:06:41.811Z,98476.25
2019-03-04T13:08:49.575Z,98472.23
2019-03-04T13:10:57.406Z,98475.05
2019-03-04T13:13:05.124Z,98458.26
2019-03-04T13:15:19.339Z,98458.23
2019-03-04T13:17:27.139Z,98439.13
2019-03-04T13:19:34.854Z,98444.94
2019-03-04T13:21:42.364Z,98447.23
2019-03-04T13:23:50.147Z,98440.07
2019-03-04T13:25:57.835Z,98438.27
2019-03-04T13:28:08.615Z,98444.88
2019-03-04T13:30:21.458Z,98442.73
2019-03-04T13:32:28.987Z,98451.87
2019-03-04T13:34:36.709Z,98448.21
2019-03-04T13:36:44.468Z,98442.28
2019-03-04T13:38:52.076Z,98440.78
2019-03-04T13:40:59.984Z,98448.44
2019-03-04T13:43:08.037Z,98435.66
2019-03-04T13:45:16.538Z,98437.34
2019-03-04T13:47:24.276Z,98441.32
2019-03-04T13:49:32.082Z,98442.01
2019-03-04T13:51:39.813Z,98448.97
2019-03-04T13:53:47.551Z,98437.64
2019-03-04T13:55:55.372Z,98446.31
2019-03-04T13:58:03.109Z,98436.00
2019-03-04T14:00:15.838Z,98434.50
2019-03-04T14:02:23.400Z,98429.98
2019-03-04T14:04:30.968Z,98418.09
2019-03-04T14:06:38.743Z,98424.40
2019-03-04T14:08:46.674Z,98414.78
2019-03-04T14:10:54.485Z,98429.58
2019-03-04T14:13:02.161Z,98423.12
2019-03-04T14:15:14.934Z,98421.41
2019-03-04T14:17:22.741Z,98427.73
2019-03-04T14:19:30.764Z,98428.73
2019-03-04T14:21:38.582Z,98423.70
2019-03-04T14:23:47.065Z,98425.35
2019-03-04T14:25:54.901Z,98427.66
2019-03-04T14:28:02.764Z,98428.69
2019-03-04T14:30:14.755Z,98424.03
2019-03-04T14:32:22.535Z,98424.70
2019-03-04T14:34:30.174Z,98427.38
2019-03-04T14:36:37.949Z,98430.36
2019-03-04T14:38:46.570Z,98426.61
2019-03-04T14:40:54.310Z,98425.14
2019-03-04T14:43:02.049Z,98424.47
2019-03-04T14:45:12.404Z,98421.48
2019-03-04T14:47:20.158Z,98423.48
2019-03-04T14:49:28.089Z,98416.98
2019-03-04T14:51:35.921Z,98420.59
2019-03-04T14:53:43.896Z,98417.06
2019-03-04T14:55:51.702Z,98412.70
2019-03-04T14:58:01.795Z,98417.48
2019-03-04T15:00:14.904Z,98410.80
2019-03-04T15:02:22.695Z,98411.41
2019-03-04T15:04:30.665Z,98411.97
2019-03-04T15:06:38.495Z,98410.80
2019-03-04T15:08:46.157Z,98404.14
2019-03-04T15:10:53.973Z,98399.66
2019-03-04T15:13:01.867Z,98405.61
2019-03-04T15:15:09.739Z,98400.66
2019-03-04T15:17:20.832Z,98400.30
2019-03-04T15:19:28.479Z,98406.76
2019-03-04T15:21:36.498Z,98389.55
2019-03-04T15:23:44.201Z,98388.95
2019-03-04T15:25:52.061Z,98387.98
2019-03-04T15:28:15.443Z,98388.66
2019-03-04T15:30:23.255Z,98378.20
2019-03-04T15:32:30.966Z,98377.67
2019-03-04T15:34:38.599Z,98379.05
2019-03-04T15:36:46.372Z,98370.64
2019-03-04T15:38:54.399Z,98375.09
2019-03-04T15:41:02.202Z,98369.48
2019-03-04T15:43:10.149Z,98373.88
2019-03-04T15:45:18.123Z,98368.81
2019-03-04T15:47:26.066Z,98352.72
2019-03-04T15:49:33.839Z,98357.20
2019-03-04T15:51:41.718Z,98334.06
2019-03-04T15:53:49.644Z,98315.71
2019-03-04T15:55:57.595Z,98315.10
2019-03-04T15:58:06.253Z,98314.39
2019-03-04T16:00:14.447Z,98310.41
2019-03-04T16:02:22.367Z,98294.16
2019-03-04T16:04:30.326Z,98290.51
2019-03-04T16:06:38.324Z,98288.52
2019-03-04T16:08:45.997Z,98292.81
2019-03-04T16:10:53.794Z,98305.77
2019-03-04T16:13:01.757Z,98309.02
2019-03-04T16:15:12.615Z,98302.23
2019-03-04T16:17:20.529Z,98304.71
2019-03-04T16:19:28.633Z,98297.08
2019-03-04T16:21:36.500Z,98288.13
2019-03-04T16:23:44.753Z,98280.92
2019-03-04T16:25:52.739Z,98279.75
2019-03-04T16:28:15.918Z,98276.24
2019-03-04T16:30:23.904Z,98276.38
2019-03-04T16:32:31.713Z,98277.99
2019-03-04T16:34:39.595Z,98277.99
2019-03-04T16:36:47.568Z,98281.30
2019-03-04T16:38:55.549Z,98271.60
2019-03-04T16:41:03.594Z,98269.13
2019-03-04T16:43:11.625Z,98265.63
2019-03-04T16:45:19.530Z,98253.23
2019-03-04T16:47:27.753Z,98246.98
2019-03-04T16:49:35.873Z,98253.69
2019-03-04T16:51:43.931Z,98241.00
2019-03-04T16:53:51.915Z,98249.31
2019-03-04T16:56:00.077Z,98236.32
2019-03-04T16:58:08.238Z,98251.45
2019-03-04T17:00:20.833Z,98252.58
2019-03-04T17:02:29.653Z,98257.80
2019-03-04T17:04:38.249Z,98258.13
2019-03-04T17:06:47.707Z,98260.27
2019-03-04T17:08:56.764Z,98275.78
2019-03-04T17:11:05.753Z,98272.66
2019-03-04T17:13:15.439Z,98272.16
2019-03-04T17:15:24.692Z,98275.27
2019-03-04T17:17:33.235Z,98274.02
2019-03-04T17:19:42.055Z,98271.52
2019-03-04T17:21:50.198Z,98263.00
2019-03-04T17:23:58.435Z,98262.25
2019-03-04T17:26:06.397Z,98259.56
2019-03-04T17:28:14.534Z,98260.88
2019-03-04T17:30:23.072Z,98255.87
2019-03-04T17:32:31.541Z,98255.37
2019-03-04T17:34:39.935Z,98263.95
2019-03-04T17:36:48.579Z,98262.91
2019-03-04T17:38:57.355Z,98246.31
2019-03-04T17:41:06.228Z,98254.73
2019-03-04T17:43:14.320Z,98257.77
2019-03-04T17:45:24.296Z,98247.28
2019-03-04T17:47:32.223Z,98242.70
2019-03-04T17:49:40.160Z,98239.66
2019-03-04T17:51:48.227Z,98243.62
2019-03-04T17:53:56.182Z,98243.77
2019-03-04T17:56:04.135Z,98245.45
2019-03-04T17:58:12.359Z,98244.62
2019-03-04T18:00:20.772Z,98246.63
2019-03-04T18:02:29.371Z,98258.48
2019-03-04T18:04:38.034Z,98249.59
2019-03-04T18:06:46.012Z,98248.98
2019-03-04T18:08:54.469Z,98247.45
2019-03-04T18:11:02.637Z,98248.92
2019-03-04T18:13:11.800Z,98249.98
2019-03-04T18:15:22.352Z,98245.89
2019-03-04T18:17:31.304Z,98240.71
2019-03-04T18:19:39.637Z,98250.92
2019-03-04T18:21:47.643Z,98245.63
2019-03-04T18:23:55.676Z,98249.71
2019-03-04T18:26:13.509Z,98241.03
2019-03-04T18:29:11.582Z,98238.97
2019-03-04T18:31:44.612Z,98237.06
2019-03-04T18:34:44.837Z,98240.42
2019-03-04T18:37:49.007Z,98244.39
2019-03-04T18:40:52.085Z,98244.87
2019-03-04T18:43:44.971Z,98235.97
2019-03-04T18:46:51.737Z,98239.12
2019-03-04T18:49:03.154Z,98240.85
2019-03-04T18:51:10.941Z,98232.07
2019-03-04T18:53:18.964Z,98240.87
2019-03-04T18:55:27.223Z,98243.23
2019-03-04T18:57:35.240Z,98246.70
2019-03-04T18:59:43.249Z,98223.70
2019-03-04T19:01:50.985Z,98232.98
2019-03-04T19:03:58.663Z,98233.80
2019-03-04T19:06:06.492Z,98229.02
2019-03-04T19:08:14.419Z,98233.49
2019-03-04T19:10:22.346Z,98240.62
2019-03-04T19:12:30.228Z,98225.70
2019-03-04T19:14:38.207Z,98235.95
2019-03-04T19:16:46.436Z,98229.15
2019-03-04T19:18:54.342Z,98225.64
2019-03-04T19:21:03.375Z,98225.30
2019-03-04T19:23:11.465Z,98227.22
2019-03-04T19:25:19.408Z,98227.95
2019-03-04T19:27:27.249Z,98229.24
2019-03-04T19:29:35.048Z,98223.24
2019-03-04T19:31:42.851Z,98225.57
2019-03-04T19:33:50.962Z,98223.89
2019-03-04T19:35:58.901Z,98224.16
2019-03-04T19:38:07.087Z,98219.89
2019-03-04T19:40:17.248Z,98228.98
2019-03-04T19:42:25.389Z,98225.19
2019-03-04T19:44:33.426Z,98232.76
2019-03-04T19:46:41.427Z,98234.73
2019-03-04T19:48:49.429Z,98238.00
2019-03-04T19:50:57.272Z,98237.14
2019-03-04T19:53:05.328Z,98230.20
2019-03-04T19:55:13.597Z,98227.84
2019-03-04T19:57:21.478Z,98218.56
2019-03-04T19:59:29.465Z,98217.06
2019-03-04T20:01:37.533Z,98224.83
2019-03-04T20:03:45.635Z,98225.48
2019-03-04T20:05:53.599Z,98217.83
2019-03-04T20:08:01.503Z,98214.43
2019-03-04T20:10:11.353Z,98214.75
2019-03-04T20:12:19.382Z,98217.87
2019-03-04T20:14:27.634Z,98231.21
2019-03-04T20:16:35.534Z,98221.88
2019-03-04T20:18:43.708Z,98218.69
2019-03-04T20:20:51.574Z,98214.46
2019-03-04T20:22:59.405Z,98218.01
2019-03-04T20:25:08.308Z,98219.58
2019-03-04T20:27:16.069Z,98211.92
2019-03-04T20:29:24.000Z,98218.04
2019-03-04T20:31:31.937Z,98219.36
2019-03-04T20:33:40.259Z,98223.55
2019-03-04T20:35:49.713Z,98228.62
2019-03-04T20:37:58.587Z,98221.64
2019-03-04T20:40:07.482Z,98228.62
2019-03-04T20:42:15.565Z,98226.08
2019-03-04T20:44:23.528Z,98234.12
2019-03-04T20:46:32.048Z,98235.75
2019-03-04T20:48:40.322Z,98236.39
2019-03-04T20:50:48.502Z,98246.30
2019-03-04T20:52:56.610Z,98243.61
2019-03-04T20:55:05.005Z,98249.77
2019-03-04T20:57:12.750Z,98249.55
2019-03-04T20:59:20.669Z,98250.91
2019-03-04T21:01:28.631Z,98256.02
2019-03-04T21:03:38.506Z,98261.17
2019-03-04T21:05:46.454Z,98249.72
2019-03-04T21:07:54.498Z,98262.05
2019-03-04T21:10:02.446Z,98264.78
2019-03-04T21:12:10.644Z,98263.37
2019-03-04T21:14:18.871Z,98260.34
2019-03-04T21:16:26.750Z,98263.30
2019-03-04T21:18:34.766Z,98249.13
2019-03-04T21:20:42.805Z,98253.73
2019-03-04T21:22:50.788Z,98255.69
2019-03-04T21:24:58.605Z,98251.98
2019-03-04T21:27:06.872Z,98252.39
2019-03-04T21:30:00.347Z,98253.16
2019-03-04T21:33:19.852Z,98241.07
2019-03-04T21:36:34.997Z,98251.41
2019-03-04T21:38:42.816Z,98254.25
2019-03-04T21:41:31.774Z,98253.18
2019-03-04T21:43:50.717Z,98252.49
2019-03-04T21:46:57.214Z,98252.91
2019-03-04T21:49:09.679Z,98255.80
2019-03-04T21:52:01.725Z,98261.52
2019-03-04T21:54:10.279Z,98262.53
2019-03-04T21:57:03.372Z,98264.16
2019-03-04T21:59:11.476Z,98271.14
2019-03-04T22:01:35.893Z,98275.20
2019-03-04T22:03:43.912Z,98268.27
2019-03-04T22:05:51.840Z,98270.55
2019-03-04T22:07:59.937Z,98270.78
2019-03-04T22:10:09.105Z,98269.50
2019-03-04T22:12:17.885Z,98270.33
2019-03-04T22:14:25.982Z,98270.52
2019-03-04T22:16:34.000Z,98274.84
2019-03-04T22:18:41.921Z,98279.31
2019-03-04T22:20:49.767Z,98281.98
2019-03-04T22:22:57.357Z,98276.80
2019-03-04T22:25:05.805Z,98283.84
2019-03-04T22:27:13.483Z,98280.02
2019-03-04T22:29:21.343Z,98278.70
2019-03-04T22:31:29.312Z,98278.31
2019-03-04T22:33:37.237Z,98282.81
2019-03-04T22:35:45.225Z,98282.75
2019-03-04T22:37:54.120Z,98282.41
2019-03-04T22:40:01.902Z,98286.94
2019-03-04T22:42:09.888Z,98284.04
2019-03-04T22:44:17.598Z,98283.34
2019-03-04T22:46:25.312Z,98280.02
2019-03-04T22:48:32.928Z,98290.71
2019-03-04T22:50:40.837Z,98290.31
2019-03-04T22:52:48.572Z,98298.50
2019-03-04T22:54:56.723Z,98293.73
2019-03-04T22:57:04.689Z,98293.40
2019-03-04T22:59:12.372Z,98298.66
2019-03-04T23:01:39.391Z,98298.45
2019-03-04T23:03:47.545Z,98305.19
2019-03-04T23:05:55.422Z,98301.78
2019-03-04T23:08:03.148Z,98305.62
2019-03-04T23:10:56.949Z,98314.70
2019-03-04T23:13:57.652Z,98310.22
2019-03-04T23:16:19.989Z,98321.11
2019-03-04T23:18:27.714Z,98323.89
2019-03-04T23:20:35.386Z,98324.97
2019-03-04T23:22:43.223Z,98320.72
2019-03-04T23:24:51.427Z,98332.85
2019-03-04T23:26:59.702Z,98336.30
2019-03-04T23:29:07.515Z,98339.14
2019-03-04T23:31:15.273Z,98339.95
2019-03-04T23:33:23.302Z,98358.73
2019-03-04T23:35:31.272Z,98364.86
2019-03-04T23:37:39.198Z,98366.24
2019-03-04T23:39:46.907Z,98368.47
2019-03-04T23:41:54.522Z,98377.70
2019-03-04T23:44:02.227Z,98388.34
2019-03-04T23:46:10.114Z,98396.41
2019-03-04T23:48:17.948Z,98400.64
2019-03-04T23:50:26.057Z,98397.48
2019-03-04T23:52:33.718Z,98402.25
2019-03-04T23:54:41.463Z,98410.94
2019-03-04T23:56:49.100Z,98417.03
2019-03-04T23:58:56.960Z,98422.28
